Time;durP1;ratioP1;P1;durP2;ratioP2;P2;SDS_P1;SDS_P2;PMS_P1;PMS_P2;Temp;Humidity;BMP_temperature;BMP_pressure;BME280_temperature;BME280_humidity;BME280_pressure;Samples;Min_cycle;Max_cycle;Signal;HPM_P1;HPM_P2
2021/03/23 00:02:11;;;;;;;32.50;28.57;;;4.10;99.90;;;;;;5110013;28;20484;-72
2021/03/23 00:04:39;;;;;;;29.90;26.90;;;4.00;99.90;;;;;;5107904;28;20543;-72
2021/03/23 00:07:06;;;;;;;29.77;26.73;;;3.80;99.90;;;;;;5115314;28;20491;-73
2021/03/23 00:09:32;;;;;;;30.17;27.00;;;3.60;99.90;;;;;;5111414;28;20955;-73
2021/03/23 00:11:59;;;;;;;30.10;27.17;;;3.40;99.90;;;;;;5110566;28;20944;-73
2021/03/23 00:14:26;;;;;;;29.93;26.93;;;3.30;99.90;;;;;;5111977;28;20908;-73
2021/03/23 00:16:53;;;;;;;30.13;27.00;;;3.20;99.90;;;;;;5106007;28;20532;-73
2021/03/23 00:19:19;;;;;;;31.83;27.73;;;3.10;99.90;;;;;;5117984;28;20928;-73
2021/03/23 00:21:45;;;;;;;31.33;28.23;;;3.10;99.90;;;;;;5111188;28;20482;-73
2021/03/23 00:24:14;;;;;;;37.50;30.67;;;3.10;99.90;;;;;;5111094;28;20544;-72
2021/03/23 00:26:40;;;;;;;34.67;31.07;;;3.10;99.90;;;;;;5119317;28;20518;-73
2021/03/23 00:29:07;;;;;;;35.13;31.30;;;3.00;99.90;;;;;;5111719;28;20567;-73
2021/03/23 00:31:34;;;;;;;37.83;31.13;;;3.00;99.90;;;;;;5112226;28;20492;-72
2021/03/23 00:34:03;;;;;;;38.03;31.13;;;3.00;99.90;;;;;;5112436;28;20567;-72
2021/03/23 00:36:33;;;;;;;39.33;31.97;;;3.00;99.90;;;;;;5116273;28;20457;-72
2021/03/23 00:39:04;;;;;;;47.90;33.00;;;3.00;99.90;;;;;;5114410;28;20467;-73
2021/03/23 00:41:36;;;;;;;43.50;34.13;;;3.00;99.90;;;;;;5112415;28;20456;-72
2021/03/23 00:44:04;;;;;;;39.63;32.90;;;3.00;99.90;;;;;;5109686;28;20459;-72
2021/03/23 00:46:30;;;;;;;47.70;34.23;;;3.00;99.90;;;;;;5112082;28;20540;-72
2021/03/23 00:48:58;;;;;;;47.17;33.47;;;3.10;99.90;;;;;;5113347;28;20468;-72
2021/03/23 00:51:25;;;;;;;39.10;31.83;;;3.20;99.90;;;;;;5116692;28;20571;-72
2021/03/23 00:53:53;;;;;;;41.20;31.93;;;3.30;99.90;;;;;;5112294;27;20461;-72
2021/03/23 00:56:20;;;;;;;41.07;31.83;;;3.40;99.90;;;;;;5111812;27;20559;-72
2021/03/23 00:58:48;;;;;;;48.60;32.97;;;3.50;99.90;;;;;;5120336;27;20464;-72
2021/03/23 01:01:14;;;;;;;46.87;33.30;;;3.50;99.90;;;;;;5117348;27;20453;-72
2021/03/23 01:03:40;;;;;;;39.53;31.30;;;3.60;99.90;;;;;;5121774;27;20582;-72
2021/03/23 01:06:08;;;;;;;43.07;30.10;;;3.60;99.90;;;;;;5114567;27;20540;-72
2021/03/23 01:08:34;;;;;;;44.50;32.67;;;3.60;99.90;;;;;;5115131;27;20906;-72
2021/03/23 01:11:02;;;;;;;43.77;33.10;;;3.60;99.90;;;;;;5116132;27;20952;-72
2021/03/23 01:13:29;;;;;;;45.60;34.47;;;3.70;99.90;;;;;;5117155;27;20457;-73
2021/03/23 01:15:55;;;;;;;45.20;33.33;;;3.90;99.90;;;;;;5114215;27;20571;-72
2021/03/23 01:18:22;;;;;;;44.67;32.90;;;4.00;99.90;;;;;;5110966;27;20940;-72
2021/03/23 01:20:48;;;;;;;43.97;33.23;;;4.00;99.90;;;;;;5119313;27;20572;-72
2021/03/23 01:23:16;;;;;;;41.13;33.00;;;3.90;99.90;;;;;;5113312;27;20850;-72
2021/03/23 01:25:42;;;;;;;44.50;33.17;;;4.00;99.90;;;;;;5120173;27;20457;-72
2021/03/23 01:28:11;;;;;;;40.87;32.37;;;4.10;99.90;;;;;;5114615;27;20555;-72
2021/03/23 01:30:38;;;;;;;49.33;35.13;;;4.00;99.90;;;;;;5113697;27;20552;-72
2021/03/23 01:33:04;;;;;;;50.77;35.20;;;4.20;99.90;;;;;;5114678;27;20460;-72
2021/03/23 01:35:32;;;;;;;47.90;36.10;;;4.20;99.90;;;;;;5113920;27;20496;-72
2021/03/23 01:37:58;;;;;;;46.03;34.40;;;4.30;99.90;;;;;;5111380;27;20559;-72
2021/03/23 01:40:29;;;;;;;48.13;36.07;;;4.20;99.90;;;;;;5115225;27;20461;-72
2021/03/23 01:42:58;;;;;;;49.53;34.70;;;4.30;99.90;;;;;;5114065;27;20561;-72
2021/03/23 01:45:29;;;;;;;41.03;31.83;;;4.30;99.90;;;;;;5111231;27;20481;-72
2021/03/23 01:47:58;;;;;;;40.67;31.97;;;4.30;99.90;;;;;;5112144;27;20956;-72
2021/03/23 01:50:27;;;;;;;43.80;34.73;;;4.30;99.90;;;;;;5113952;27;20552;-72
2021/03/23 01:52:59;;;;;;;37.77;30.93;;;4.40;99.90;;;;;;5119963;27;20457;-72
2021/03/23 01:55:27;;;;;;;42.97;33.23;;;4.40;99.90;;;;;;5113474;27;20564;-73
2021/03/23 01:57:55;;;;;;;45.53;35.23;;;4.40;99.90;;;;;;5110466;27;21034;-72
2021/03/23 02:00:23;;;;;;;44.00;31.80;;;4.50;99.90;;;;;;5113151;27;20453;-72
2021/03/23 02:02:50;;;;;;;43.00;34.10;;;4.50;99.90;;;;;;5102678;27;20557;-72
2021/03/23 02:05:24;;;;;;;46.43;35.30;;;4.60;99.90;;;;;;5111128;27;20517;-72
2021/03/23 02:07:51;;;;;;;43.63;35.60;;;4.70;99.90;;;;;;5112617;27;20612;-72
2021/03/23 02:10:18;;;;;;;47.63;34.40;;;4.60;99.90;;;;;;5115384;27;20456;-72
2021/03/23 02:12:47;;;;;;;48.07;36.00;;;4.60;99.90;;;;;;5110618;27;20541;-72
2021/03/23 02:15:16;;;;;;;57.53;34.90;;;4.70;99.90;;;;;;5110442;27;20484;-72
2021/03/23 02:17:43;;;;;;;43.17;35.60;;;4.70;99.90;;;;;;5115422;27;20483;-72
2021/03/23 02:20:13;;;;;;;42.37;33.43;;;4.80;99.90;;;;;;5111444;27;20513;-72
2021/03/23 02:22:42;;;;;;;44.20;34.80;;;4.80;99.90;;;;;;5110466;27;20542;-72
2021/03/23 02:25:12;;;;;;;41.90;33.80;;;4.90;99.90;;;;;;5114198;27;20893;-72
2021/03/23 02:27:39;;;;;;;54.03;36.87;;;4.90;99.90;;;;;;5108823;27;20586;-73
2021/03/23 02:30:12;;;;;;;52.97;37.77;;;5.00;99.90;;;;;;5110194;27;20810;-72
2021/03/23 02:32:38;;;;;;;43.23;35.43;;;5.10;99.90;;;;;;5122066;27;20580;-72
2021/03/23 02:35:05;;;;;;;40.87;33.57;;;5.10;99.90;;;;;;5114801;27;20486;-72
2021/03/23 02:37:31;;;;;;;44.10;35.63;;;5.20;99.90;;;;;;5107763;27;20995;-72
2021/03/23 02:39:59;;;;;;;47.87;35.20;;;5.20;99.90;;;;;;5111911;27;20461;-72
2021/03/23 02:42:26;;;;;;;43.40;35.37;;;5.10;99.90;;;;;;5113841;27;20463;-72
2021/03/23 02:44:54;;;;;;;45.70;35.00;;;5.00;99.90;;;;;;5115238;27;20541;-72
2021/03/23 02:47:21;;;;;;;46.00;35.47;;;5.10;99.90;;;;;;5117782;27;20598;-72
2021/03/23 02:49:47;;;;;;;45.50;34.50;;;5.10;99.90;;;;;;5111104;27;20468;-72
2021/03/23 02:52:14;;;;;;;51.70;36.37;;;5.10;99.90;;;;;;5110207;27;21077;-73
2021/03/23 02:54:41;;;;;;;47.03;36.70;;;5.20;99.90;;;;;;5110913;27;20481;-73
2021/03/23 02:57:10;;;;;;;46.23;36.50;;;5.20;99.90;;;;;;5101703;28;20826;-73
2021/03/23 02:59:36;;;;;;;51.87;37.83;;;5.20;99.90;;;;;;5114097;27;20534;-72
2021/03/23 03:02:03;;;;;;;48.60;36.17;;;5.20;99.90;;;;;;5112860;27;20832;-72
2021/03/23 03:04:30;;;;;;;46.10;36.10;;;5.20;99.90;;;;;;5115630;27;20521;-72
2021/03/23 03:06:57;;;;;;;47.27;36.10;;;5.30;99.90;;;;;;5119239;27;20854;-73
2021/03/23 03:09:24;;;;;;;47.10;33.97;;;5.30;99.90;;;;;;5111415;27;20820;-73
2021/03/23 03:11:51;;;;;;;49.43;34.60;;;5.30;99.90;;;;;;5111364;27;20453;-72
2021/03/23 03:14:20;;;;;;;47.17;35.50;;;5.40;99.90;;;;;;5116418;27;21085;-73
2021/03/23 03:16:46;;;;;;;44.97;34.70;;;5.40;99.90;;;;;;5113623;27;20970;-73
2021/03/23 03:19:14;;;;;;;47.07;34.13;;;5.50;99.90;;;;;;5118802;27;20490;-72
2021/03/23 03:21:41;;;;;;;48.90;34.83;;;5.50;99.90;;;;;;5110591;27;20483;-72
2021/03/23 03:24:08;;;;;;;42.27;33.40;;;5.30;99.90;;;;;;5109837;27;20451;-72
2021/03/23 03:26:35;;;;;;;43.27;33.70;;;5.20;99.90;;;;;;5103588;27;20451;-72
2021/03/23 03:29:02;;;;;;;47.73;35.60;;;5.30;99.90;;;;;;5104501;27;20461;-72
2021/03/23 03:31:31;;;;;;;41.97;33.40;;;5.40;99.90;;;;;;5112584;27;20460;-72
2021/03/23 03:33:59;;;;;;;45.33;34.53;;;5.40;99.90;;;;;;5109923;27;20508;-72
2021/03/23 03:36:32;;;;;;;45.33;35.47;;;5.40;99.90;;;;;;5108404;27;20682;-73
2021/03/23 03:38:58;;;;;;;43.47;35.03;;;5.50;99.90;;;;;;5105435;27;20549;-73
2021/03/23 03:41:26;;;;;;;39.80;34.03;;;5.40;99.90;;;;;;5114318;27;20453;-73
2021/03/23 03:43:53;;;;;;;46.20;35.87;;;5.40;99.90;;;;;;5109947;28;21019;-73
2021/03/23 03:46:19;;;;;;;43.00;33.47;;;5.50;99.90;;;;;;5107226;27;20457;-73
2021/03/23 03:48:47;;;;;;;42.30;35.20;;;5.50;99.90;;;;;;5112293;27;20542;-73
2021/03/23 03:51:14;;;;;;;41.37;34.00;;;5.40;99.90;;;;;;5099971;28;20477;-73
2021/03/23 03:53:40;;;;;;;46.43;35.30;;;5.50;99.90;;;;;;5108558;27;20548;-73
2021/03/23 03:56:08;;;;;;;50.93;33.63;;;5.60;99.90;;;;;;5111631;27;20501;-73
2021/03/23 03:58:34;;;;;;;47.57;34.70;;;5.50;99.90;;;;;;5110406;28;20457;-72
2021/03/23 04:01:01;;;;;;;47.40;34.17;;;5.40;99.90;;;;;;5101815;28;20468;-72
2021/03/23 04:03:29;;;;;;;43.80;34.30;;;5.40;99.90;;;;;;5105712;28;20482;-73
2021/03/23 04:05:58;;;;;;;44.03;34.50;;;5.40;99.90;;;;;;5112704;28;20828;-72
2021/03/23 04:08:26;;;;;;;45.80;36.10;;;5.50;99.90;;;;;;5099996;28;21000;-72
2021/03/23 04:10:53;;;;;;;51.70;37.40;;;5.60;99.90;;;;;;5103857;28;20594;-73
2021/03/23 04:13:20;;;;;;;45.60;34.40;;;5.60;99.90;;;;;;5102954;28;20452;-74
2021/03/23 04:15:49;;;;;;;41.83;33.27;;;5.70;99.90;;;;;;5102323;28;20483;-72
2021/03/23 04:18:17;;;;;;;43.90;33.87;;;5.70;99.90;;;;;;5105435;28;20505;-73
2021/03/23 04:20:44;;;;;;;43.97;34.30;;;5.70;99.90;;;;;;5108739;28;20565;-74
2021/03/23 04:23:21;;;;;;;44.67;35.13;;;5.80;99.90;;;;;;5102523;28;20464;-72
2021/03/23 04:25:48;;;;;;;40.93;33.73;;;5.80;99.90;;;;;;5102749;28;20458;-74
2021/03/23 04:28:14;;;;;;;44.60;34.77;;;5.80;99.90;;;;;;5103435;28;20947;-72
2021/03/23 04:30:41;;;;;;;46.30;35.00;;;5.80;99.90;;;;;;5101174;28;20459;-72
2021/03/23 04:33:08;;;;;;;46.87;35.50;;;5.80;99.90;;;;;;5106894;28;20566;-73
2021/03/23 04:35:41;;;;;;;45.10;35.23;;;5.80;99.90;;;;;;5108876;28;20494;-73
2021/03/23 04:38:10;;;;;;;45.50;33.87;;;5.80;99.90;;;;;;5107191;28;21010;-72
2021/03/23 04:40:38;;;;;;;41.97;35.03;;;5.70;99.90;;;;;;5104070;27;20500;-73
2021/03/23 04:43:06;;;;;;;44.67;35.23;;;5.70;99.90;;;;;;5103790;28;20471;-73
2021/03/23 04:45:33;;;;;;;45.27;36.57;;;5.60;99.90;;;;;;5107097;28;20465;-72
2021/03/23 04:48:01;;;;;;;43.33;35.80;;;5.70;99.90;;;;;;5107823;28;20457;-73
2021/03/23 04:50:28;;;;;;;52.73;37.23;;;5.70;99.90;;;;;;5108783;28;20539;-73
2021/03/23 04:52:54;;;;;;;51.77;37.43;;;5.80;99.90;;;;;;5107374;27;20863;-73
2021/03/23 04:55:21;;;;;;;43.13;35.70;;;5.80;99.90;;;;;;5105875;28;20473;-72
2021/03/23 04:57:48;;;;;;;44.87;34.87;;;5.90;99.90;;;;;;5103849;28;20506;-74
2021/03/23 05:00:16;;;;;;;44.43;33.07;;;5.90;99.90;;;;;;5104574;28;20459;-72
2021/03/23 05:02:42;;;;;;;45.00;36.40;;;6.00;99.90;;;;;;5107778;28;20469;-72
2021/03/23 05:05:10;;;;;;;41.60;34.47;;;5.80;99.90;;;;;;5102237;28;20454;-75
2021/03/23 05:07:38;;;;;;;46.63;34.53;;;5.90;99.90;;;;;;5112854;27;20480;-74
2021/03/23 05:10:06;;;;;;;47.60;36.03;;;5.90;99.90;;;;;;5127910;27;20910;-74
2021/03/23 05:12:35;;;;;;;46.10;35.53;;;6.00;99.90;;;;;;5119121;27;20472;-73
2021/03/23 05:15:03;;;;;;;47.73;36.10;;;5.80;99.90;;;;;;5112337;27;20497;-73
2021/03/23 05:17:29;;;;;;;45.43;33.23;;;5.90;99.90;;;;;;5117651;27;20988;-73
2021/03/23 05:19:56;;;;;;;46.20;35.00;;;5.90;99.90;;;;;;5116414;27;20476;-75
2021/03/23 05:22:23;;;;;;;51.50;36.50;;;5.90;99.90;;;;;;5122761;27;20507;-76
2021/03/23 05:24:49;;;;;;;42.40;34.07;;;5.90;99.90;;;;;;5122893;27;20499;-75
2021/03/23 05:27:15;;;;;;;44.27;35.07;;;6.00;99.90;;;;;;5124881;27;20547;-72
2021/03/23 05:29:48;;;;;;;44.97;36.47;;;6.00;99.90;;;;;;5121248;27;20457;-73
2021/03/23 05:32:15;;;;;;;46.90;36.47;;;6.00;99.90;;;;;;5117675;27;20468;-72
2021/03/23 05:34:41;;;;;;;50.37;36.50;;;6.00;99.90;;;;;;5117108;27;20495;-71
2021/03/23 05:37:08;;;;;;;46.33;34.60;;;6.00;99.90;;;;;;5124633;27;20460;-73
2021/03/23 05:39:34;;;;;;;48.80;35.53;;;6.00;99.90;;;;;;5119369;27;20483;-75
2021/03/23 05:42:06;;;;;;;44.53;36.63;;;5.80;99.90;;;;;;5125092;27;20456;-74
2021/03/23 05:44:56;;;;;;;45.90;36.30;;;5.90;99.90;;;;;;5118577;27;20481;-75
2021/03/23 05:47:30;;;;;;;44.10;35.17;;;5.90;99.90;;;;;;5116498;27;20461;-72
2021/03/23 05:50:03;;;;;;;43.20;34.97;;;5.90;99.90;;;;;;5117471;27;20459;-75
2021/03/23 05:52:35;;;;;;;48.90;35.63;;;6.00;99.90;;;;;;5115354;27;20457;-75
2021/03/23 05:55:06;;;;;;;49.77;36.03;;;6.10;99.90;;;;;;5123906;27;20536;-71
2021/03/23 05:57:36;;;;;;;40.67;33.40;;;6.10;99.90;;;;;;5118173;27;20459;-75
2021/03/23 06:00:07;;;;;;;46.00;35.90;;;6.10;99.90;;;;;;5111066;27;20920;-76
2021/03/23 06:02:43;;;;;;;54.40;36.10;;;6.10;99.90;;;;;;5121914;27;20908;-74
2021/03/23 06:05:36;;;;;;;46.77;37.33;;;6.10;99.90;;;;;;5107008;27;20467;-74
2021/03/23 06:08:05;;;;;;;46.57;34.20;;;6.10;99.90;;;;;;5107044;27;20480;-75
2021/03/23 06:10:32;;;;;;;45.93;35.57;;;6.10;99.90;;;;;;5120061;27;20469;-76
2021/03/23 06:13:11;;;;;;;43.00;34.33;;;6.20;99.90;;;;;;5117477;27;20529;-75
2021/03/23 06:15:43;;;;;;;42.93;34.70;;;6.20;99.90;;;;;;5119918;27;20480;-76
2021/03/23 06:18:22;;;;;;;44.23;36.30;;;6.30;99.90;;;;;;5118011;27;21152;-75
2021/03/23 06:20:58;;;;;;;45.00;36.70;;;6.30;99.90;;;;;;5120369;27;20475;-72
2021/03/23 06:23:45;;;;;;;53.70;35.67;;;6.30;99.90;;;;;;5116706;27;20526;-74
2021/03/23 06:26:21;;;;;;;44.03;35.30;;;6.40;99.90;;;;;;5106952;27;20454;-72
2021/03/23 06:29:03;;;;;;;41.83;33.40;;;6.40;99.90;;;;;;5117764;27;20521;-73
2021/03/23 06:31:59;;;;;;;44.00;34.67;;;6.60;99.90;;;;;;5105356;27;20461;-74
2021/03/23 06:34:29;;;;;;;38.43;32.17;;;6.50;99.90;;;;;;5116901;27;20463;-72
2021/03/23 06:36:56;;;;;;;47.90;33.63;;;6.60;99.90;;;;;;5114614;27;20493;-76
2021/03/23 06:39:23;;;;;;;39.33;32.37;;;6.70;99.90;;;;;;5111789;27;20515;-72
2021/03/23 06:41:55;;;;;;;43.13;32.27;;;6.70;99.90;;;;;;5112520;27;20553;-73
2021/03/23 06:44:27;;;;;;;45.23;34.43;;;6.60;99.90;;;;;;5110009;27;20490;-72
2021/03/23 06:46:54;;;;;;;43.93;33.27;;;6.70;99.90;;;;;;5108912;27;20518;-74
2021/03/23 06:49:30;;;;;;;42.57;32.87;;;6.80;99.90;;;;;;5112613;27;20507;-76
2021/03/23 06:52:20;;;;;;;35.93;30.90;;;6.80;99.90;;;;;;5110464;27;20448;-75
2021/03/23 06:55:06;;;;;;;40.87;32.07;;;6.60;99.90;;;;;;5109580;27;20560;-73
2021/03/23 06:57:38;;;;;;;39.60;32.63;;;6.50;99.90;;;;;;5106439;27;20461;-72
2021/03/23 07:00:16;;;;;;;43.90;34.50;;;6.70;99.90;;;;;;5110311;27;20549;-74
2021/03/23 07:02:44;;;;;;;43.53;31.27;;;6.90;99.90;;;;;;5103376;27;20463;-73
2021/03/23 07:05:30;;;;;;;42.33;32.83;;;7.00;99.90;;;;;;5108427;27;20532;-72
2021/03/23 07:07:59;;;;;;;48.10;34.03;;;7.00;99.90;;;;;;5091374;27;20477;-74
2021/03/23 07:10:29;;;;;;;43.97;32.80;;;7.10;99.90;;;;;;5105100;27;20829;-71
2021/03/23 07:12:56;;;;;;;41.77;33.20;;;7.20;99.90;;;;;;5102333;27;20551;-73
2021/03/23 07:15:25;;;;;;;43.77;32.73;;;7.20;99.90;;;;;;5103172;27;20640;-74
2021/03/23 07:17:54;;;;;;;41.90;32.07;;;7.30;99.90;;;;;;5107617;27;20910;-75
2021/03/23 07:20:42;;;;;;;38.77;32.63;;;7.40;99.90;;;;;;5111684;27;20552;-74
2021/03/23 07:23:35;;;;;;;36.30;31.70;;;7.40;99.90;;;;;;5107041;27;20465;-72
2021/03/23 07:26:17;;;;;;;40.00;30.90;;;7.60;99.90;;;;;;5110352;27;20454;-76
2021/03/23 07:28:43;;;;;;;34.13;30.40;;;7.80;99.90;;;;;;5108306;27;20583;-77
2021/03/23 07:31:17;;;;;;;42.67;33.00;;;7.80;99.90;;;;;;5103776;27;20854;-73
2021/03/23 07:34:10;;;;;;;34.80;31.00;;;7.80;99.90;;;;;;5110100;27;21027;-75
2021/03/23 07:36:41;;;;;;;34.83;30.97;;;8.00;99.90;;;;;;5103442;27;20508;-75
2021/03/23 07:39:14;;;;;;;40.43;29.63;;;8.00;99.90;;;;;;5107150;27;20886;-75
2021/03/23 07:41:45;;;;;;;36.70;30.40;;;7.90;99.90;;;;;;5106294;27;20547;-76
2021/03/23 07:44:19;;;;;;;32.83;29.30;;;8.10;99.90;;;;;;5107075;27;20459;-73
2021/03/23 07:46:50;;;;;;;37.00;30.67;;;8.10;99.90;;;;;;5111530;27;20934;-73
2021/03/23 07:49:36;;;;;;;34.90;29.20;;;8.20;99.90;;;;;;5110727;27;20462;-74
2021/03/23 07:52:15;;;;;;;33.57;28.93;;;8.20;99.90;;;;;;5102761;27;20472;-75
2021/03/23 07:54:43;;;;;;;41.47;28.63;;;8.30;99.90;;;;;;5100328;28;20484;-73
2021/03/23 07:57:49;;;;;;;35.67;27.77;;;8.10;99.90;;;;;;5097442;28;20571;-73
2021/03/23 08:00:22;;;;;;;35.90;28.37;;;8.20;99.90;;;;;;5106102;28;20452;-74
2021/03/23 08:03:09;;;;;;;40.17;30.80;;;7.90;99.90;;;;;;5105482;28;20490;-73
2021/03/23 08:05:43;;;;;;;33.97;27.87;;;8.30;99.90;;;;;;5109535;27;20456;-74
2021/03/23 08:08:22;;;;;;;42.63;28.73;;;8.20;99.90;;;;;;5091764;27;20484;-73
2021/03/23 08:10:58;;;;;;;31.87;28.10;;;8.10;99.90;;;;;;5075789;28;20464;-73
2021/03/23 08:13:41;;;;;;;32.83;27.63;;;8.50;99.90;;;;;;5077014;28;20459;-73
2021/03/23 08:16:34;;;;;;;40.97;30.40;;;8.60;99.90;;;;;;5071700;28;20939;-73
2021/03/23 08:19:27;;;;;;;39.40;26.53;;;8.60;99.90;;;;;;5078064;28;20544;-74
2021/03/23 08:22:40;;;;;;;30.83;27.73;;;8.70;99.90;;;;;;5070831;28;20580;-74
2021/03/23 08:25:14;;;;;;;29.70;26.70;;;8.70;99.90;;;;;;5078545;28;20518;-74
2021/03/23 08:28:05;;;;;;;42.07;29.93;;;8.80;99.90;;;;;;5077150;28;20465;-74
2021/03/23 08:30:41;;;;;;;35.53;30.47;;;8.80;99.90;;;;;;5080626;28;20534;-74
2021/03/23 08:33:22;;;;;;;35.30;26.80;;;9.10;99.90;;;;;;5079307;28;20463;-74
2021/03/23 08:36:04;;;;;;;33.43;27.47;;;9.00;99.90;;;;;;5076607;28;20504;-74
2021/03/23 08:38:47;;;;;;;33.67;27.33;;;9.20;99.90;;;;;;5077467;28;20540;-74
2021/03/23 08:41:25;;;;;;;31.33;28.03;;;9.10;99.90;;;;;;5069164;28;20616;-73
2021/03/23 08:43:52;;;;;;;33.50;26.87;;;9.40;99.90;;;;;;5081910;28;20502;-74
2021/03/23 08:46:22;;;;;;;36.03;27.57;;;9.40;99.90;;;;;;5078185;28;20461;-74
2021/03/23 08:48:53;;;;;;;35.90;28.13;;;9.40;99.90;;;;;;5077558;28;20454;-74
2021/03/23 08:51:23;;;;;;;29.67;26.43;;;9.60;99.90;;;;;;5081354;28;20604;-77
2021/03/23 08:53:54;;;;;;;33.07;27.20;;;9.40;99.90;;;;;;5074253;28;20466;-74
2021/03/23 08:56:56;;;;;;;34.67;26.93;;;9.30;99.90;;;;;;5082603;28;20490;-74
2021/03/23 08:59:48;;;;;;;35.57;26.27;;;9.60;99.90;;;;;;5076761;28;20457;-75
2021/03/23 09:02:48;;;;;;;30.40;27.10;;;9.30;99.90;;;;;;5082268;28;20546;-75
2021/03/23 09:06:01;;;;;;;32.67;27.70;;;9.50;99.90;;;;;;5078291;28;20487;-75
2021/03/23 09:08:41;;;;;;;31.37;27.37;;;10.00;99.90;;;;;;5107185;27;21039;-79
2021/03/23 09:11:11;;;;;;;35.40;29.67;;;10.30;99.90;;;;;;5109962;27;20467;-76
2021/03/23 09:14:17;;;;;;;30.40;27.30;;;10.50;99.90;;;;;;5109165;27;20864;-74
2021/03/23 09:17:17;;;;;;;32.60;29.23;;;10.20;99.90;;;;;;5109176;27;20579;-78
2021/03/23 09:19:51;;;;;;;32.53;29.43;;;10.10;99.90;;;;;;5106063;27;20813;-75
2021/03/23 09:22:36;;;;;;;31.53;27.23;;;10.40;99.90;;;;;;5114183;27;20985;-74
2021/03/23 09:25:52;;;;;;;31.90;28.57;;;10.20;99.90;;;;;;5111591;27;20474;-74
2021/03/23 09:28:52;;;;;;;27.67;24.77;;;10.50;99.90;;;;;;5104798;27;21012;-76
2021/03/23 09:31:42;;;;;;;35.77;28.67;;;10.70;99.90;;;;;;5108302;27;20516;-74
2021/03/23 09:34:42;;;;;;;32.57;27.67;;;10.60;99.90;;;;;;5113372;27;20471;-74
2021/03/23 09:37:41;;;;;;;31.73;28.47;;;10.50;99.90;;;;;;5112901;27;20456;-75
2021/03/23 09:40:35;;;;;;;32.43;27.60;;;10.80;99.90;;;;;;5007997;28;20458;-78
2021/03/23 09:43:25;;;;;;;28.97;26.07;;;11.30;99.90;;;;;;5109175;27;20461;-74
2021/03/23 09:45:58;;;;;;;29.83;26.73;;;10.80;99.90;;;;;;5111063;27;20495;-75
2021/03/23 09:48:55;;;;;;;35.13;27.33;;;10.70;99.90;;;;;;5114049;27;20539;-74
2021/03/23 09:51:45;;;;;;;35.40;26.97;;;11.00;99.90;;;;;;5102465;27;20483;-75
2021/03/23 09:54:21;;;;;;;35.43;27.70;;;10.70;99.90;;;;;;5113584;27;20461;-75
2021/03/23 09:56:49;;;;;;;32.43;28.33;;;11.10;99.90;;;;;;5113718;27;20906;-75
2021/03/23 09:59:19;;;;;;;33.97;28.03;;;11.60;99.90;;;;;;5117371;27;20467;-80
2021/03/23 10:02:21;;;;;;;33.27;28.07;;;12.00;99.90;;;;;;5110428;27;20461;-75
2021/03/23 10:04:48;;;;;;;30.57;27.40;;;11.90;99.90;;;;;;5107977;27;20465;-79
2021/03/23 10:07:27;;;;;;;33.93;28.73;;;11.90;99.90;;;;;;5113868;27;20484;-77
2021/03/23 10:09:55;;;;;;;30.20;27.30;;;11.90;99.90;;;;;;5108814;27;20562;-75
2021/03/23 10:12:30;;;;;;;34.33;26.30;;;12.00;99.90;;;;;;5110737;27;21007;-74
2021/03/23 10:14:56;;;;;;;33.70;27.73;;;12.00;99.90;;;;;;5112882;27;20477;-75
2021/03/23 10:17:25;;;;;;;27.43;24.63;;;12.10;99.90;;;;;;5114334;27;21017;-74
2021/03/23 10:19:55;;;;;;;30.87;27.50;;;12.00;99.90;;;;;;5113412;27;20545;-73
2021/03/23 10:22:28;;;;;;;31.07;27.30;;;12.20;99.90;;;;;;5107701;27;20529;-77
2021/03/23 10:24:57;;;;;;;32.77;27.53;;;12.10;99.90;;;;;;5114185;27;20952;-74
2021/03/23 10:27:27;;;;;;;30.83;27.30;;;12.30;99.90;;;;;;5106562;27;21471;-74
2021/03/23 10:30:00;;;;;;;35.50;29.30;;;12.10;99.90;;;;;;5114972;27;20990;-74
2021/03/23 10:32:43;;;;;;;29.67;26.57;;;12.10;99.90;;;;;;5109396;27;20572;-74
2021/03/23 10:35:18;;;;;;;30.90;26.23;;;12.10;99.90;;;;;;5116826;27;20484;-74
2021/03/23 10:37:44;;;;;;;32.20;29.10;;;12.20;99.90;;;;;;5110461;27;20866;-74
2021/03/23 10:40:34;;;;;;;34.40;28.40;;;12.40;99.90;;;;;;5110499;27;20843;-75
2021/03/23 10:43:01;;;;;;;31.50;28.00;;;12.90;99.90;;;;;;5110759;27;20460;-74
2021/03/23 10:45:35;;;;;;;32.93;27.13;;;12.60;99.90;;;;;;5116393;27;20581;-75
2021/03/23 10:48:05;;;;;;;29.93;26.30;;;13.00;99.90;;;;;;5112256;27;20828;-76
2021/03/23 10:50:34;;;;;;;32.27;28.30;;;13.40;99.90;;;;;;5103572;27;20460;-74
2021/03/23 10:53:16;;;;;;;30.37;27.37;;;13.80;99.90;;;;;;5104802;27;20472;-77
2021/03/23 10:55:45;;;;;;;30.40;27.37;;;14.10;99.90;;;;;;5119656;27;20484;-74
2021/03/23 10:58:25;;;;;;;33.07;27.27;;;14.20;99.90;;;;;;5107593;27;20461;-74
2021/03/23 11:01:11;;;;;;;31.87;28.40;;;14.10;99.90;;;;;;5114679;27;20451;-74
2021/03/23 11:03:40;;;;;;;36.63;30.03;;;14.40;99.90;;;;;;5107690;27;20457;-76
2021/03/23 11:06:24;;;;;;;31.73;28.27;;;14.20;99.90;;;;;;5106678;27;20463;-78
2021/03/23 11:08:51;;;;;;;27.63;25.03;;;14.10;99.90;;;;;;5111532;27;20496;-74
2021/03/23 11:11:18;;;;;;;32.03;27.50;;;13.80;99.90;;;;;;5111114;27;20479;-77
2021/03/23 11:13:45;;;;;;;28.67;25.97;;;14.00;99.90;;;;;;5117898;27;20704;-74
2021/03/23 11:16:14;;;;;;;32.97;29.40;;;13.50;99.90;;;;;;5100511;27;20505;-75
2021/03/23 11:18:42;;;;;;;31.23;27.13;;;13.90;99.90;;;;;;5107375;27;21048;-75
2021/03/23 11:21:13;;;;;;;34.10;26.53;;;14.20;99.90;;;;;;5110053;27;21278;-78
2021/03/23 11:23:41;;;;;;;32.13;28.77;;;14.70;99.90;;;;;;5114418;27;20480;-74
2021/03/23 11:26:10;;;;;;;31.33;28.17;;;14.70;99.90;;;;;;5106327;27;20468;-80
2021/03/23 11:28:37;;;;;;;31.50;28.10;;;15.10;99.90;;;;;;5104755;27;20461;-78
2021/03/23 11:31:05;;;;;;;31.10;27.80;;;14.80;99.90;;;;;;5105640;28;20466;-75
2021/03/23 11:33:33;;;;;;;31.57;28.40;;;15.40;99.90;;;;;;5103042;27;20464;-75
2021/03/23 11:36:01;;;;;;;32.07;28.90;;;15.50;99.90;;;;;;5110694;27;20498;-75
2021/03/23 11:38:28;;;;;;;30.23;27.30;;;15.70;99.90;;;;;;5111306;27;20817;-78
2021/03/23 11:40:56;;;;;;;30.13;26.83;;;15.90;99.90;;;;;;5101149;27;20467;-74
2021/03/23 11:43:27;;;;;;;37.30;28.20;;;15.00;99.90;;;;;;5111783;27;20518;-75
2021/03/23 11:45:59;;;;;;;31.67;28.10;;;15.30;99.90;;;;;;5103771;27;20911;-76
2021/03/23 11:48:28;;;;;;;31.27;27.40;;;15.40;99.90;;;;;;5114073;27;20482;-74
2021/03/23 11:50:54;;;;;;;32.90;29.20;;;15.30;99.90;;;;;;5108818;27;20468;-75
2021/03/23 11:53:22;;;;;;;31.87;28.93;;;15.10;99.90;;;;;;5118898;27;20463;-78
2021/03/23 11:55:49;;;;;;;31.33;27.93;;;15.30;99.90;;;;;;5110806;27;20989;-73
2021/03/23 11:58:17;;;;;;;31.37;28.37;;;15.60;99.90;;;;;;5113561;27;20485;-76
2021/03/23 12:00:44;;;;;;;30.43;27.33;;;15.70;99.90;;;;;;5111894;28;20464;-76
2021/03/23 12:03:13;;;;;;;31.17;27.77;;;15.60;99.90;;;;;;5110269;28;20492;-76
2021/03/23 12:05:41;;;;;;;32.23;27.27;;;15.70;99.90;;;;;;5114159;28;20466;-75
2021/03/23 12:08:18;;;;;;;33.00;29.70;;;15.70;99.90;;;;;;5115006;28;20515;-78
2021/03/23 12:10:52;;;;;;;35.07;27.93;;;15.80;99.90;;;;;;5104015;28;20872;-75
2021/03/23 12:13:25;;;;;;;30.93;27.63;;;15.70;99.90;;;;;;5112507;28;20952;-77
2021/03/23 12:15:58;;;;;;;30.73;27.93;;;15.30;99.90;;;;;;5116410;28;20503;-75
2021/03/23 12:18:27;;;;;;;33.60;30.30;;;14.80;99.90;;;;;;5102771;28;20461;-75
2021/03/23 12:20:59;;;;;;;30.77;27.57;;;14.70;99.90;;;;;;5099911;28;20488;-77
2021/03/23 12:23:26;;;;;;;32.03;28.87;;;14.80;99.90;;;;;;5112183;28;20517;-77
2021/03/23 12:25:55;;;;;;;34.27;30.87;;;14.90;99.90;;;;;;5111358;28;20460;-76
2021/03/23 12:28:21;;;;;;;29.60;26.53;;;14.70;99.90;;;;;;5112221;28;20461;-75
2021/03/23 12:30:48;;;;;;;31.03;27.57;;;15.00;99.90;;;;;;5110606;28;20845;-76
2021/03/23 12:33:15;;;;;;;33.67;29.60;;;15.10;99.90;;;;;;5110264;28;20461;-78
2021/03/23 12:35:43;;;;;;;31.37;28.00;;;15.40;99.90;;;;;;5110379;28;20481;-78
2021/03/23 12:38:11;;;;;;;32.13;27.40;;;15.00;99.90;;;;;;5113935;28;20495;-75
2021/03/23 12:40:39;;;;;;;30.73;27.67;;;14.80;99.90;;;;;;5112008;28;20487;-76
2021/03/23 12:43:09;;;;;;;31.20;27.83;;;14.80;99.90;;;;;;5117277;28;20615;-78
2021/03/23 12:45:37;;;;;;;31.10;27.93;;;15.20;99.90;;;;;;5106469;28;20467;-78
2021/03/23 12:48:04;;;;;;;32.47;27.87;;;16.00;99.90;;;;;;5105437;28;20508;-75
2021/03/23 12:50:31;;;;;;;31.50;28.50;;;15.80;99.90;;;;;;5106904;27;20563;-78
2021/03/23 12:53:03;;;;;;;30.83;27.77;;;15.70;99.90;;;;;;5108850;27;20543;-76
2021/03/23 12:55:31;;;;;;;32.70;29.37;;;15.90;99.90;;;;;;5106991;27;20887;-76
2021/03/23 12:58:01;;;;;;;31.00;28.20;;;16.20;99.90;;;;;;5108126;27;20990;-75
2021/03/23 13:00:31;;;;;;;29.33;26.33;;;16.00;99.90;;;;;;5111873;27;20496;-75